createdAt,value
2022-10-06T00:00:11.253Z,13.50
2022-10-06T00:01:17.764Z,13.50
2022-10-06T00:02:20.803Z,13.50
2022-10-06T00:03:24.475Z,13.50
2022-10-06T00:04:26.997Z,13.50
2022-10-06T00:05:31.063Z,13.50
2022-10-06T00:06:34.121Z,13.50
2022-10-06T00:07:37.503Z,13.40
2022-10-06T00:08:41.896Z,13.50
2022-10-06T00:09:45.311Z,13.50
2022-10-06T00:10:47.767Z,13.50
2022-10-06T00:11:51.457Z,13.50
2022-10-06T00:12:56.544Z,13.50
2022-10-06T00:14:02.356Z,13.40
2022-10-06T00:15:05.784Z,13.40
2022-10-06T00:16:14.403Z,13.40
2022-10-06T00:17:16.743Z,13.40
2022-10-06T00:18:20.380Z,13.40
2022-10-06T00:19:22.904Z,13.40
2022-10-06T00:20:27.570Z,13.40
2022-10-06T00:21:30.187Z,13.40
2022-10-06T00:22:35.439Z,13.40
2022-10-06T00:23:38.075Z,13.30
2022-10-06T00:24:44.287Z,13.30
2022-10-06T00:25:46.705Z,13.30
2022-10-06T00:26:50.820Z,13.30
2022-10-06T00:27:53.852Z,13.30
2022-10-06T00:28:57.484Z,13.30
2022-10-06T00:30:00.302Z,13.30
2022-10-06T00:31:03.974Z,13.20
2022-10-06T00:32:09.433Z,13.20
2022-10-06T00:33:18.057Z,13.20
2022-10-06T00:34:21.917Z,13.20
2022-10-06T00:35:26.563Z,13.20
2022-10-06T00:36:31.632Z,13.20
2022-10-06T00:37:38.608Z,13.10
2022-10-06T00:38:41.713Z,13.10
2022-10-06T00:39:48.173Z,13.10
2022-10-06T00:40:52.081Z,13.10
2022-10-06T00:41:55.556Z,13.10
2022-10-06T00:43:01.110Z,13.00
2022-10-06T00:44:04.650Z,13.00
2022-10-06T00:45:09.090Z,13.00
2022-10-06T00:46:22.251Z,13.00
2022-10-06T00:47:33.953Z,12.90
2022-10-06T00:48:37.063Z,12.90
2022-10-06T00:49:40.701Z,12.90
2022-10-06T00:50:44.513Z,12.90
2022-10-06T00:51:56.118Z,12.90
2022-10-06T00:52:58.976Z,12.80
2022-10-06T00:54:03.753Z,12.80
2022-10-06T00:55:09.397Z,12.80
2022-10-06T00:56:14.092Z,12.80
2022-10-06T00:57:16.803Z,12.80
2022-10-06T00:58:21.480Z,12.70
2022-10-06T00:59:24.173Z,12.70
2022-10-06T01:00:34.617Z,12.70
2022-10-06T01:01:42.411Z,12.70
2022-10-06T01:02:54.810Z,12.70
2022-10-06T01:04:06.888Z,12.70
2022-10-06T01:05:16.417Z,12.70
2022-10-06T01:06:21.041Z,12.60
2022-10-06T01:07:29.157Z,12.60
2022-10-06T01:08:32.775Z,12.60
2022-10-06T01:09:39.012Z,12.60
2022-10-06T01:10:41.412Z,12.60
2022-10-06T01:11:46.116Z,12.60
2022-10-06T01:12:48.728Z,12.60
2022-10-06T01:13:52.419Z,12.60
2022-10-06T01:14:57.323Z,12.60
2022-10-06T01:16:10.600Z,12.60
2022-10-06T01:17:22.184Z,12.60
2022-10-06T01:18:28.145Z,12.60
2022-10-06T01:19:47.513Z,12.60
2022-10-06T01:20:58.638Z,12.60
2022-10-06T01:22:06.063Z,12.60
2022-10-06T01:23:14.240Z,12.60
2022-10-06T01:24:18.652Z,12.60
2022-10-06T01:25:23.674Z,12.60
2022-10-06T01:26:29.710Z,12.60
2022-10-06T01:27:35.911Z,12.60
2022-10-06T01:28:39.552Z,12.60
2022-10-06T01:29:43.147Z,12.50
2022-10-06T01:30:52.907Z,12.50
2022-10-06T01:31:59.807Z,12.50
2022-10-06T01:33:02.416Z,12.50
2022-10-06T01:34:05.917Z,12.50
2022-10-06T01:35:10.298Z,12.50
2022-10-06T01:36:13.742Z,12.50
2022-10-06T01:37:19.857Z,12.50
2022-10-06T01:38:27.924Z,12.50
2022-10-06T01:39:35.023Z,12.50
2022-10-06T01:40:38.517Z,12.50
2022-10-06T01:41:40.923Z,12.50
2022-10-06T01:42:44.301Z,12.50
2022-10-06T01:43:46.898Z,12.50
2022-10-06T01:44:52.657Z,12.40
2022-10-06T01:45:56.127Z,12.40
2022-10-06T01:46:59.574Z,12.40
2022-10-06T01:48:02.614Z,12.40
2022-10-06T01:49:07.007Z,12.40
2022-10-06T01:50:10.504Z,12.40
2022-10-06T01:51:16.039Z,12.40
2022-10-06T01:52:19.198Z,12.40
2022-10-06T01:53:24.193Z,12.30
2022-10-06T01:54:28.302Z,12.30
2022-10-06T01:55:32.141Z,12.30
2022-10-06T01:56:35.665Z,12.30
2022-10-06T01:57:43.070Z,12.30
2022-10-06T01:58:46.170Z,12.30
2022-10-06T01:59:54.588Z,12.30
2022-10-06T02:01:07.194Z,12.20
2022-10-06T02:02:12.377Z,12.20
2022-10-06T02:03:14.845Z,12.20
2022-10-06T02:04:18.877Z,12.20
2022-10-06T02:05:24.005Z,12.20
2022-10-06T02:06:30.287Z,12.20
2022-10-06T02:07:36.236Z,12.20
2022-10-06T02:08:42.046Z,12.20
2022-10-06T02:09:45.953Z,12.10
2022-10-06T02:10:49.965Z,12.10
2022-10-06T02:11:57.563Z,12.10
2022-10-06T02:13:01.114Z,12.10
2022-10-06T02:14:03.669Z,12.10
2022-10-06T02:15:11.001Z,12.10
2022-10-06T02:16:14.251Z,12.10
2022-10-06T02:17:19.864Z,12.10
2022-10-06T02:18:22.232Z,12.10
2022-10-06T02:19:26.010Z,12.00
2022-10-06T02:20:28.635Z,12.00
2022-10-06T02:21:32.066Z,12.00
2022-10-06T02:22:39.339Z,12.00
2022-10-06T02:23:42.721Z,12.00
2022-10-06T02:24:46.587Z,12.00
2022-10-06T02:25:50.113Z,12.00
2022-10-06T02:26:53.826Z,12.00
2022-10-06T02:27:57.263Z,12.00
2022-10-06T02:28:59.685Z,12.00
2022-10-06T02:30:03.235Z,11.90
2022-10-06T02:31:09.777Z,11.90
2022-10-06T02:32:13.281Z,11.90
2022-10-06T02:33:17.219Z,11.90
2022-10-06T02:34:19.892Z,11.90
2022-10-06T02:35:23.584Z,11.90
2022-10-06T02:36:26.542Z,11.90
2022-10-06T02:37:30.362Z,11.90
2022-10-06T02:38:33.362Z,11.80
2022-10-06T02:39:38.113Z,11.80
2022-10-06T02:40:42.165Z,11.80
2022-10-06T02:41:46.628Z,11.80
2022-10-06T02:42:49.620Z,11.80
2022-10-06T02:43:56.323Z,11.80
2022-10-06T02:44:59.548Z,11.80
2022-10-06T02:46:05.487Z,11.80
2022-10-06T02:47:14.413Z,11.80
2022-10-06T02:48:18.036Z,11.80
2022-10-06T02:49:20.726Z,11.80
2022-10-06T02:50:24.614Z,11.80
2022-10-06T02:51:27.186Z,11.80
2022-10-06T02:52:35.741Z,11.80
2022-10-06T02:53:38.509Z,11.80
2022-10-06T02:54:42.200Z,11.80
2022-10-06T02:55:48.604Z,11.80
2022-10-06T02:56:52.089Z,11.80
2022-10-06T02:57:55.189Z,11.80
2022-10-06T02:58:58.597Z,11.70
2022-10-06T03:00:07.281Z,11.70
2022-10-06T03:01:12.814Z,11.80
2022-10-06T03:02:15.366Z,11.70
2022-10-06T03:03:18.920Z,11.80
2022-10-06T03:04:21.706Z,11.70
2022-10-06T03:05:27.786Z,11.80
2022-10-06T03:06:32.960Z,11.80
2022-10-06T03:07:54.637Z,11.70
2022-10-06T03:08:59.377Z,11.80
2022-10-06T03:10:02.970Z,11.80
2022-10-06T03:11:07.177Z,11.80
2022-10-06T03:12:10.828Z,11.80
2022-10-06T03:13:16.393Z,11.80
2022-10-06T03:14:22.047Z,11.80
2022-10-06T03:15:25.521Z,11.70
2022-10-06T03:16:31.966Z,11.70
2022-10-06T03:17:36.815Z,11.70
2022-10-06T03:18:43.955Z,11.70
2022-10-06T03:19:46.686Z,11.70
2022-10-06T03:20:51.079Z,11.70
2022-10-06T03:21:54.099Z,11.70
2022-10-06T03:23:01.251Z,11.70
2022-10-06T03:24:04.531Z,11.70
2022-10-06T03:25:09.829Z,11.70
2022-10-06T03:26:15.266Z,11.70
2022-10-06T03:27:18.914Z,11.60
2022-10-06T03:28:21.444Z,11.60
2022-10-06T03:29:25.130Z,11.60
2022-10-06T03:30:30.655Z,11.60
2022-10-06T03:31:34.796Z,11.60
2022-10-06T03:32:38.206Z,11.60
2022-10-06T03:33:42.058Z,11.60
2022-10-06T03:34:46.791Z,11.60
2022-10-06T03:36:00.951Z,11.60
2022-10-06T03:37:04.469Z,11.50
2022-10-06T03:38:08.856Z,11.50
2022-10-06T03:39:12.720Z,11.50
2022-10-06T03:40:16.069Z,11.50
2022-10-06T03:41:23.712Z,11.50
2022-10-06T03:42:26.139Z,11.50
2022-10-06T03:43:31.778Z,11.50
2022-10-06T03:44:35.086Z,11.50
2022-10-06T03:45:39.118Z,11.50
2022-10-06T03:46:41.958Z,11.50
2022-10-06T03:47:45.239Z,11.50
2022-10-06T03:48:48.946Z,11.50
2022-10-06T03:49:52.553Z,11.40
2022-10-06T03:50:56.485Z,11.40
2022-10-06T03:52:00.056Z,11.40
2022-10-06T03:53:07.429Z,11.40
2022-10-06T03:54:12.450Z,11.40
2022-10-06T03:55:17.807Z,11.40
2022-10-06T03:56:24.701Z,11.40
2022-10-06T03:57:27.132Z,11.40
2022-10-06T03:58:33.837Z,11.40
2022-10-06T03:59:37.402Z,11.40
2022-10-06T04:00:41.167Z,11.40
2022-10-06T04:01:47.439Z,11.40
2022-10-06T04:02:56.589Z,11.30
2022-10-06T04:04:01.461Z,11.30
2022-10-06T04:05:04.361Z,11.40
2022-10-06T04:06:13.317Z,11.30
2022-10-06T04:07:15.740Z,11.30
2022-10-06T04:08:19.613Z,11.30
2022-10-06T04:09:23.512Z,11.30
2022-10-06T04:10:26.942Z,11.30
2022-10-06T04:11:33.725Z,11.30
2022-10-06T04:12:36.170Z,11.30
2022-10-06T04:13:40.298Z,11.30
2022-10-06T04:14:44.990Z,11.30
2022-10-06T04:15:49.391Z,11.30
2022-10-06T04:16:51.891Z,11.30
2022-10-06T04:17:59.995Z,11.30
2022-10-06T04:19:05.158Z,11.30
2022-10-06T04:20:10.826Z,11.30
2022-10-06T04:21:13.945Z,11.30
2022-10-06T04:22:17.375Z,11.30
2022-10-06T04:23:20.811Z,11.30
2022-10-06T04:24:24.247Z,11.30
2022-10-06T04:25:27.408Z,11.30
2022-10-06T04:26:35.586Z,11.30
2022-10-06T04:27:37.912Z,11.30
2022-10-06T04:28:48.741Z,11.20
2022-10-06T04:29:52.192Z,11.20
2022-10-06T04:30:59.400Z,11.20
2022-10-06T04:32:02.196Z,11.20
2022-10-06T04:33:09.904Z,11.20
2022-10-06T04:34:13.425Z,11.20
2022-10-06T04:35:18.281Z,11.20
2022-10-06T04:36:23.481Z,11.20
2022-10-06T04:37:29.017Z,11.20
2022-10-06T04:38:33.894Z,11.20
2022-10-06T04:39:41.181Z,11.20
2022-10-06T04:40:44.436Z,11.10
2022-10-06T04:41:51.316Z,11.10
2022-10-06T04:42:57.991Z,11.10
2022-10-06T04:44:02.570Z,11.10
2022-10-06T04:45:06.962Z,11.10
2022-10-06T04:46:37.636Z,11.10
2022-10-06T04:47:35.548Z,11.10
2022-10-06T04:48:38.865Z,11.10
2022-10-06T04:49:42.333Z,11.10
2022-10-06T04:50:56.755Z,11.00
2022-10-06T04:52:02.663Z,11.00
2022-10-06T04:53:07.772Z,11.00
2022-10-06T04:54:11.430Z,11.00
2022-10-06T04:55:13.900Z,11.00
2022-10-06T04:56:19.868Z,11.00
2022-10-06T04:57:26.226Z,11.00
2022-10-06T04:58:33.319Z,11.00
2022-10-06T04:59:54.825Z,11.00
2022-10-06T05:01:02.410Z,11.00
2022-10-06T05:02:06.998Z,10.90
2022-10-06T05:03:10.432Z,11.00
2022-10-06T05:04:12.890Z,10.90
2022-10-06T05:05:18.587Z,10.90
2022-10-06T05:06:23.949Z,10.90
2022-10-06T05:07:28.035Z,10.90
2022-10-06T05:08:33.374Z,10.90
2022-10-06T05:09:39.643Z,10.90
2022-10-06T05:10:42.795Z,10.90
2022-10-06T05:11:46.785Z,10.80
2022-10-06T05:12:53.132Z,10.80
2022-10-06T05:13:58.733Z,10.80
2022-10-06T05:15:03.596Z,10.80
2022-10-06T05:16:09.942Z,10.80
2022-10-06T05:17:12.748Z,10.80
2022-10-06T05:18:16.133Z,10.80
2022-10-06T05:19:18.865Z,10.80
2022-10-06T05:20:22.939Z,10.70
2022-10-06T05:21:28.389Z,10.70
2022-10-06T05:22:32.006Z,10.70
2022-10-06T05:23:37.987Z,10.70
2022-10-06T05:24:41.313Z,10.70
2022-10-06T05:25:51.601Z,10.70
2022-10-06T05:26:59.508Z,10.70
2022-10-06T05:28:05.451Z,10.70
2022-10-06T05:29:08.875Z,10.60
2022-10-06T05:30:12.742Z,10.60
2022-10-06T05:31:20.133Z,10.60
2022-10-06T05:32:22.771Z,10.60
2022-10-06T05:33:27.852Z,10.60
2022-10-06T05:34:30.263Z,10.60
2022-10-06T05:35:33.640Z,10.60
2022-10-06T05:36:36.429Z,10.50
2022-10-06T05:37:41.353Z,10.50
2022-10-06T05:38:44.728Z,10.50
2022-10-06T05:39:48.115Z,10.50
2022-10-06T05:40:51.982Z,10.50
2022-10-06T05:41:57.833Z,10.50
2022-10-06T05:43:00.919Z,10.50
2022-10-06T05:44:05.922Z,10.40
2022-10-06T05:45:11.172Z,10.40
2022-10-06T05:46:20.313Z,10.40
2022-10-06T05:47:23.310Z,10.40
2022-10-06T05:48:28.229Z,10.40
2022-10-06T05:49:30.968Z,10.40
2022-10-06T05:50:37.714Z,10.40
2022-10-06T05:51:40.588Z,10.40
2022-10-06T05:52:48.462Z,10.40
2022-10-06T05:53:51.558Z,10.40
2022-10-06T05:54:55.028Z,10.40
2022-10-06T05:56:08.168Z,10.40
2022-10-06T05:57:11.548Z,10.40
2022-10-06T05:58:18.396Z,10.40
2022-10-06T05:59:23.807Z,10.40
2022-10-06T06:00:28.635Z,10.40
2022-10-06T06:01:34.773Z,10.40
2022-10-06T06:02:43.977Z,10.40
2022-10-06T06:03:50.612Z,10.40
2022-10-06T06:04:53.998Z,10.40
2022-10-06T06:05:58.981Z,10.40
2022-10-06T06:07:02.857Z,10.40
2022-10-06T06:08:08.814Z,10.40
2022-10-06T06:09:14.803Z,10.40
2022-10-06T06:10:18.246Z,10.40
2022-10-06T06:11:25.378Z,10.40
2022-10-06T06:12:28.022Z,10.40
2022-10-06T06:13:47.182Z,10.50
2022-10-06T06:15:10.089Z,10.50
2022-10-06T06:16:17.380Z,10.50
2022-10-06T06:17:20.765Z,10.50
2022-10-06T06:18:26.350Z,10.50
2022-10-06T06:19:29.992Z,10.60
2022-10-06T06:20:32.517Z,10.60
2022-10-06T06:21:37.105Z,10.60
2022-10-06T06:22:39.721Z,10.60
2022-10-06T06:23:46.673Z,10.70
2022-10-06T06:24:50.500Z,10.70
2022-10-06T06:26:02.662Z,10.70
2022-10-06T06:27:06.282Z,10.80
2022-10-06T06:28:09.758Z,10.80
2022-10-06T06:29:12.221Z,10.90
2022-10-06T06:30:21.753Z,11.00
2022-10-06T06:31:29.529Z,11.10
2022-10-06T06:32:32.023Z,11.10
2022-10-06T06:33:40.779Z,11.20
2022-10-06T06:34:43.468Z,11.30
2022-10-06T06:35:50.164Z,11.40
2022-10-06T06:36:55.206Z,11.60
2022-10-06T06:37:59.454Z,11.70
2022-10-06T06:39:06.659Z,11.80
2022-10-06T06:40:10.226Z,11.80
2022-10-06T06:41:17.867Z,12.00
2022-10-06T06:42:20.355Z,12.10
2022-10-06T06:43:24.019Z,12.30
2022-10-06T06:44:46.325Z,12.80
2022-10-06T06:46:04.405Z,13.00
2022-10-06T06:47:26.620Z,13.40
2022-10-06T06:48:33.219Z,13.90
2022-10-06T06:49:37.150Z,14.40
2022-10-06T06:50:42.943Z,14.80
2022-10-06T06:51:50.802Z,15.20
2022-10-06T06:52:55.380Z,15.60
2022-10-06T06:54:02.208Z,16.10
2022-10-06T06:55:06.996Z,16.50
2022-10-06T06:56:13.161Z,16.90
2022-10-06T06:57:17.584Z,17.30
2022-10-06T06:58:23.722Z,17.80
2022-10-06T06:59:26.524Z,18.10
2022-10-06T07:00:36.096Z,18.50
2022-10-06T07:01:44.578Z,18.80
2022-10-06T07:02:56.102Z,19.10
2022-10-06T07:04:00.259Z,19.40
2022-10-06T07:05:07.845Z,19.80
2022-10-06T07:06:14.196Z,20.10
2022-10-06T07:07:17.785Z,20.40
2022-10-06T07:08:20.596Z,20.70
2022-10-06T07:09:26.925Z,21.10
2022-10-06T07:10:36.312Z,21.30
2022-10-06T07:11:41.904Z,21.70
2022-10-06T07:12:55.516Z,22.00
2022-10-06T07:14:04.632Z,22.30
2022-10-06T07:15:32.881Z,22.70
2022-10-06T07:16:54.531Z,23.00
2022-10-06T07:18:21.466Z,23.40
2022-10-06T07:19:53.091Z,23.70
2022-10-06T07:21:14.509Z,24.10
2022-10-06T07:22:53.873Z,24.40
2022-10-06T07:24:15.107Z,24.70
2022-10-06T07:25:26.097Z,25.00
2022-10-06T07:26:35.662Z,25.20
2022-10-06T07:27:43.038Z,25.40
2022-10-06T07:28:49.628Z,25.60
2022-10-06T07:29:55.558Z,25.80
2022-10-06T07:31:00.727Z,26.00
2022-10-06T07:32:05.302Z,26.10
2022-10-06T07:33:12.765Z,26.30
2022-10-06T07:34:19.420Z,26.50
2022-10-06T07:35:23.598Z,26.60
2022-10-06T07:36:27.481Z,26.80
2022-10-06T07:37:30.250Z,26.90
2022-10-06T07:38:36.340Z,27.10
2022-10-06T07:39:41.134Z,27.20
2022-10-06T07:40:50.515Z,27.40
2022-10-06T07:42:10.250Z,27.60
2022-10-06T07:43:12.924Z,27.80
2022-10-06T07:44:19.630Z,27.90
2022-10-06T07:45:39.498Z,28.00
2022-10-06T07:46:46.941Z,28.10
2022-10-06T07:47:58.799Z,28.30
2022-10-06T07:49:03.970Z,28.30
2022-10-06T07:50:11.561Z,28.50
2022-10-06T07:51:16.995Z,28.60
2022-10-06T07:52:21.076Z,28.60
2022-10-06T07:53:28.929Z,28.70
2022-10-06T07:54:39.076Z,28.80
2022-10-06T07:55:56.682Z,29.00
2022-10-06T07:57:01.811Z,29.10
2022-10-06T07:58:04.514Z,29.20
2022-10-06T07:59:07.939Z,29.40
2022-10-06T08:00:15.679Z,29.50
2022-10-06T08:01:21.656Z,29.70
2022-10-06T08:02:30.188Z,29.90
2022-10-06T08:03:38.548Z,30.00
2022-10-06T08:04:43.495Z,30.20
2022-10-06T08:05:46.362Z,30.40
2022-10-06T08:06:52.080Z,30.60
2022-10-06T08:07:55.030Z,30.80
2022-10-06T08:08:58.344Z,30.90
2022-10-06T08:10:00.702Z,31.10
2022-10-06T08:11:04.552Z,31.20
2022-10-06T08:12:21.884Z,31.40
2022-10-06T08:13:26.263Z,31.50
2022-10-06T08:14:29.763Z,31.70
2022-10-06T08:15:32.109Z,31.80
2022-10-06T08:16:35.436Z,31.90
2022-10-06T08:17:38.559Z,32.00
2022-10-06T08:18:46.474Z,32.10
2022-10-06T08:19:51.238Z,32.30
2022-10-06T08:20:55.550Z,32.40
2022-10-06T08:22:02.261Z,32.40
2022-10-06T08:23:08.667Z,32.50
2022-10-06T08:24:12.090Z,32.70
2022-10-06T08:25:17.770Z,32.80
2022-10-06T08:26:22.936Z,33.00
2022-10-06T08:27:27.152Z,33.20
2022-10-06T08:28:32.396Z,33.30
2022-10-06T08:29:35.972Z,33.40
2022-10-06T08:30:40.628Z,33.60
2022-10-06T08:31:43.993Z,33.70
2022-10-06T08:32:47.686Z,33.70
2022-10-06T08:33:57.330Z,33.80
2022-10-06T08:35:04.565Z,34.00
2022-10-06T08:36:11.236Z,34.10
2022-10-06T08:37:20.212Z,34.10
2022-10-06T08:38:26.417Z,34.20
2022-10-06T08:39:32.145Z,34.20
2022-10-06T08:40:36.437Z,34.20
2022-10-06T08:41:44.738Z,34.30
2022-10-06T08:42:52.117Z,34.40
2022-10-06T08:44:04.454Z,34.50
2022-10-06T08:45:15.441Z,34.60
2022-10-06T08:46:24.689Z,34.70
2022-10-06T08:48:08.158Z,34.80
2022-10-06T08:49:20.169Z,34.90
2022-10-06T08:50:28.067Z,35.00
2022-10-06T08:51:51.922Z,35.00
2022-10-06T08:53:07.119Z,35.10
2022-10-06T08:54:16.061Z,35.10
2022-10-06T08:55:35.430Z,35.20
2022-10-06T08:56:54.341Z,35.30
2022-10-06T08:58:20.944Z,35.50
2022-10-06T08:59:23.901Z,35.60
2022-10-06T09:00:29.800Z,35.80
2022-10-06T09:01:42.727Z,35.90
2022-10-06T09:02:47.899Z,36.00
2022-10-06T09:03:54.724Z,36.10
2022-10-06T09:05:05.454Z,36.20
2022-10-06T09:06:23.299Z,36.30
2022-10-06T09:07:39.999Z,36.40
2022-10-06T09:08:50.908Z,36.50
2022-10-06T09:10:19.300Z,36.70
2022-10-06T09:11:46.344Z,36.80
2022-10-06T09:12:55.945Z,36.90
2022-10-06T09:14:04.717Z,37.00
2022-10-06T09:15:28.275Z,37.10
2022-10-06T09:16:36.951Z,37.20
2022-10-06T09:17:43.561Z,37.20
2022-10-06T09:19:07.637Z,37.10
2022-10-06T09:20:20.757Z,37.10
2022-10-06T09:21:33.170Z,37.10
2022-10-06T09:22:38.982Z,37.20
2022-10-06T09:23:47.573Z,37.20
2022-10-06T09:24:58.393Z,37.10
2022-10-06T09:26:02.027Z,36.80
2022-10-06T09:27:19.938Z,36.60
2022-10-06T09:28:24.280Z,36.30
2022-10-06T09:29:31.838Z,35.80
2022-10-06T09:30:34.222Z,35.30
2022-10-06T09:31:39.961Z,34.70
2022-10-06T09:32:48.461Z,34.10
2022-10-06T09:33:53.809Z,33.30
2022-10-06T09:34:59.980Z,32.60
2022-10-06T09:36:09.189Z,31.90
2022-10-06T09:37:16.371Z,31.20
2022-10-06T09:38:22.528Z,30.40
2022-10-06T09:39:27.899Z,29.70
2022-10-06T09:40:40.341Z,29.20
2022-10-06T09:41:46.012Z,28.50
2022-10-06T09:42:49.906Z,27.90
2022-10-06T09:43:57.465Z,27.40
2022-10-06T09:45:04.975Z,26.90
2022-10-06T09:46:21.175Z,26.50
2022-10-06T09:47:38.990Z,26.00
2022-10-06T09:48:44.798Z,25.60
2022-10-06T09:50:12.467Z,25.20
2022-10-06T09:51:18.195Z,24.80
2022-10-06T09:52:22.057Z,24.40
2022-10-06T09:53:27.206Z,24.10
2022-10-06T09:54:30.967Z,23.80
2022-10-06T09:55:54.915Z,23.80
2022-10-06T09:57:15.132Z,23.80
2022-10-06T09:58:32.892Z,24.10
2022-10-06T09:59:45.446Z,24.60
2022-10-06T10:00:53.031Z,25.00
2022-10-06T10:02:00.030Z,25.40
2022-10-06T10:03:07.868Z,26.00
2022-10-06T10:04:21.946Z,26.70
2022-10-06T10:05:27.149Z,27.40
2022-10-06T10:06:32.579Z,28.10
2022-10-06T10:07:38.997Z,28.80
2022-10-06T10:08:42.590Z,29.50
2022-10-06T10:09:46.035Z,30.00
2022-10-06T10:10:49.640Z,30.60
2022-10-06T10:12:28.228Z,31.10
2022-10-06T10:13:44.456Z,31.70
2022-10-06T10:14:47.477Z,32.30
2022-10-06T10:15:55.780Z,32.70
2022-10-06T10:16:58.369Z,33.10
2022-10-06T10:18:05.266Z,33.40
2022-10-06T10:19:24.004Z,33.70
2022-10-06T10:20:35.581Z,33.90
2022-10-06T10:21:39.923Z,34.20
2022-10-06T10:22:46.415Z,34.30
2022-10-06T10:23:57.552Z,34.50
2022-10-06T10:25:19.357Z,34.70
2022-10-06T10:26:43.371Z,34.90
2022-10-06T10:27:59.329Z,35.10
2022-10-06T10:29:49.684Z,35.30
2022-10-06T10:31:04.449Z,35.40
2022-10-06T10:32:15.576Z,35.70
2022-10-06T10:33:30.569Z,35.80
2022-10-06T10:35:03.664Z,35.80
2022-10-06T10:36:10.798Z,35.90
2022-10-06T10:37:18.576Z,36.00
2022-10-06T10:38:27.002Z,35.90
2022-10-06T10:39:37.103Z,35.80
2022-10-06T10:40:50.445Z,35.50
2022-10-06T10:41:55.617Z,35.40
2022-10-06T10:43:19.644Z,35.30
2022-10-06T10:44:35.004Z,35.20
2022-10-06T10:45:45.381Z,35.30
2022-10-06T10:46:56.099Z,35.30
2022-10-06T10:48:08.125Z,35.30
2022-10-06T10:49:19.331Z,35.20
2022-10-06T10:50:27.512Z,35.10
2022-10-06T10:51:35.517Z,35.10
2022-10-06T10:52:46.065Z,35.00
2022-10-06T10:53:54.284Z,35.00
2022-10-06T10:55:11.703Z,35.00
2022-10-06T10:56:21.096Z,35.00
2022-10-06T10:57:36.889Z,35.00
2022-10-06T10:58:43.714Z,35.00
2022-10-06T11:00:00.715Z,34.90
2022-10-06T11:01:25.751Z,34.90
2022-10-06T11:02:29.160Z,34.90
2022-10-06T11:03:32.840Z,35.00
2022-10-06T11:04:39.551Z,35.00
2022-10-06T11:06:17.543Z,35.00
2022-10-06T11:07:26.563Z,35.10
2022-10-06T11:08:37.951Z,35.10
2022-10-06T11:09:55.463Z,35.10
2022-10-06T11:11:02.609Z,35.10
2022-10-06T11:12:24.483Z,35.20
2022-10-06T11:13:37.121Z,35.20
2022-10-06T11:14:53.642Z,35.20
2022-10-06T11:16:20.017Z,35.10
2022-10-06T11:17:44.555Z,35.10
2022-10-06T11:19:15.892Z,35.00
2022-10-06T11:20:46.157Z,34.90
2022-10-06T11:21:56.803Z,34.70
2022-10-06T11:23:22.389Z,34.60
2022-10-06T11:24:37.665Z,34.40
2022-10-06T11:25:48.591Z,34.10
2022-10-06T11:27:41.512Z,33.80
2022-10-06T11:28:52.199Z,33.20
2022-10-06T11:30:12.446Z,32.80
2022-10-06T11:31:30.849Z,32.60
2022-10-06T11:32:48.401Z,32.50
2022-10-06T11:33:54.511Z,32.40
2022-10-06T11:34:57.313Z,32.40
2022-10-06T11:36:04.999Z,32.40
2022-10-06T11:37:25.142Z,32.50
2022-10-06T11:38:37.087Z,32.60
2022-10-06T11:39:50.911Z,32.70
2022-10-06T11:41:13.703Z,32.80
2022-10-06T11:42:26.119Z,33.00
2022-10-06T11:43:36.206Z,33.10
2022-10-06T11:44:46.476Z,33.20
2022-10-06T11:46:01.324Z,33.20
2022-10-06T11:47:09.586Z,33.20
2022-10-06T11:48:26.698Z,33.30
2022-10-06T11:49:55.863Z,33.30
2022-10-06T11:51:29.884Z,33.20
2022-10-06T11:52:54.403Z,33.30
2022-10-06T11:54:00.441Z,33.30
2022-10-06T11:55:13.869Z,33.30
2022-10-06T11:56:46.710Z,33.40
2022-10-06T11:58:29.944Z,33.50
2022-10-06T11:59:32.783Z,33.40
2022-10-06T12:00:48.208Z,33.30
2022-10-06T12:01:57.908Z,33.30
2022-10-06T12:04:05.597Z,33.30
2022-10-06T12:07:05.557Z,33.30
2022-10-06T12:08:16.887Z,33.30
2022-10-06T12:09:46.193Z,33.30
2022-10-06T12:10:51.551Z,33.30
2022-10-06T12:11:57.013Z,33.30
2022-10-06T12:13:51.363Z,33.30
2022-10-06T12:17:59.801Z,33.00
2022-10-06T12:19:23.279Z,32.90
2022-10-06T12:20:38.554Z,32.80
2022-10-06T12:21:59.210Z,32.70
2022-10-06T12:23:14.978Z,32.60
2022-10-06T12:24:41.484Z,32.50
2022-10-06T12:25:51.616Z,32.40
2022-10-06T12:27:27.302Z,32.40
2022-10-06T12:28:39.510Z,32.20
2022-10-06T12:29:52.136Z,32.10
2022-10-06T12:31:22.023Z,32.00
2022-10-06T12:32:46.435Z,31.90
2022-10-06T12:33:51.329Z,31.70
2022-10-06T12:35:18.969Z,31.50
2022-10-06T12:36:25.685Z,31.40
2022-10-06T12:37:42.881Z,31.30
2022-10-06T12:39:05.902Z,31.20
2022-10-06T12:40:50.378Z,31.20
2022-10-06T12:42:02.539Z,31.20
2022-10-06T12:43:57.727Z,31.20
2022-10-06T12:45:00.458Z,31.20
2022-10-06T12:46:13.716Z,31.20
2022-10-06T12:47:24.218Z,31.10
2022-10-06T12:48:39.063Z,31.00
2022-10-06T12:49:53.788Z,31.00
2022-10-06T12:51:05.682Z,30.90
2022-10-06T12:52:48.078Z,30.80
2022-10-06T12:54:01.651Z,30.70
2022-10-06T12:55:29.247Z,30.60
2022-10-06T12:56:36.132Z,30.40
2022-10-06T12:57:53.411Z,30.30
2022-10-06T12:58:56.007Z,30.10
2022-10-06T13:00:01.939Z,30.00
2022-10-06T13:01:11.353Z,30.00
2022-10-06T13:02:20.290Z,29.90
2022-10-06T13:03:27.398Z,29.80
2022-10-06T13:04:40.607Z,29.80
2022-10-06T13:05:49.894Z,29.70
2022-10-06T13:06:52.365Z,29.70
2022-10-06T13:08:00.824Z,29.70
2022-10-06T13:09:12.926Z,29.70
2022-10-06T13:10:22.123Z,29.70
2022-10-06T13:11:27.042Z,29.60
2022-10-06T13:12:37.254Z,29.60
2022-10-06T13:13:48.602Z,29.60
2022-10-06T13:15:23.815Z,29.70
2022-10-06T13:16:33.393Z,29.70
2022-10-06T13:17:44.317Z,29.70
2022-10-06T13:18:48.362Z,29.60
2022-10-06T13:19:51.181Z,29.50
2022-10-06T13:20:56.725Z,29.40
2022-10-06T13:22:03.052Z,29.40
2022-10-06T13:23:31.598Z,29.30
2022-10-06T13:24:33.851Z,29.10
2022-10-06T13:25:46.064Z,29.00
2022-10-06T13:26:49.771Z,28.90
2022-10-06T13:27:54.272Z,28.70
2022-10-06T13:29:01.273Z,28.70
2022-10-06T13:30:19.473Z,28.60
2022-10-06T13:31:28.104Z,28.50
2022-10-06T13:32:30.528Z,28.30
2022-10-06T13:33:39.632Z,28.30
2022-10-06T13:34:43.766Z,28.20
2022-10-06T13:35:49.362Z,28.10
2022-10-06T13:36:55.019Z,28.00
2022-10-06T13:37:59.245Z,27.90
2022-10-06T13:39:06.269Z,27.80
2022-10-06T13:40:45.535Z,27.80
2022-10-06T13:41:53.323Z,27.70
2022-10-06T13:42:59.917Z,27.50
2022-10-06T13:44:22.357Z,27.40
2022-10-06T13:45:28.011Z,27.20
2022-10-06T13:46:39.096Z,27.20
2022-10-06T13:47:41.861Z,27.20
2022-10-06T13:48:48.985Z,27.10
2022-10-06T13:49:57.871Z,27.10
2022-10-06T13:51:03.504Z,27.00
2022-10-06T13:52:19.992Z,27.00
2022-10-06T13:53:29.598Z,27.10
2022-10-06T13:54:41.194Z,27.10
2022-10-06T13:55:49.990Z,27.20
2022-10-06T13:56:56.168Z,27.20
2022-10-06T13:58:25.002Z,27.20
2022-10-06T13:59:36.676Z,27.20
2022-10-06T14:00:59.765Z,27.30
2022-10-06T14:02:32.394Z,27.30
2022-10-06T14:04:43.899Z,27.50
2022-10-06T14:05:48.152Z,27.50
2022-10-06T14:06:54.440Z,27.50
2022-10-06T14:08:02.053Z,27.50
2022-10-06T14:09:11.641Z,27.40
2022-10-06T14:10:17.465Z,27.30
2022-10-06T14:11:26.537Z,27.20
2022-10-06T14:12:29.468Z,27.20
2022-10-06T14:13:42.659Z,27.10
2022-10-06T14:14:50.341Z,27.00
2022-10-06T14:15:57.579Z,26.90
2022-10-06T14:17:01.067Z,26.90
2022-10-06T14:18:06.925Z,26.80
2022-10-06T14:19:34.821Z,26.80
2022-10-06T14:20:41.403Z,26.70
2022-10-06T14:21:46.708Z,26.70
2022-10-06T14:22:52.108Z,26.60
2022-10-06T14:23:56.308Z,26.50
2022-10-06T14:24:59.179Z,26.40
2022-10-06T14:26:02.778Z,26.40
2022-10-06T14:27:08.164Z,26.30
2022-10-06T14:28:10.596Z,26.30
2022-10-06T14:29:14.766Z,26.20
2022-10-06T14:30:20.683Z,26.20
2022-10-06T14:31:26.950Z,26.20
2022-10-06T14:32:29.848Z,26.20
2022-10-06T14:33:34.098Z,26.10
2022-10-06T14:34:40.612Z,26.10
2022-10-06T14:35:43.611Z,26.00
2022-10-06T14:36:51.320Z,25.90
2022-10-06T14:37:53.845Z,25.80
2022-10-06T14:39:00.485Z,25.80
2022-10-06T14:40:03.328Z,25.70
2022-10-06T14:41:06.816Z,25.60
2022-10-06T14:42:11.198Z,25.60
2022-10-06T14:43:14.744Z,25.50
2022-10-06T14:44:19.075Z,25.40
2022-10-06T14:45:22.936Z,25.40
2022-10-06T14:46:27.340Z,25.30
2022-10-06T14:47:31.424Z,25.30
2022-10-06T14:48:35.008Z,25.20